Alfreton, United Kingdom
Current Conditions -  °F | °C
As of 5:20 PM on Wednesday 26 Nov 2014 (Local Time) from EGNX Reporting Station
Light Rain Light Rain  
Wind Chill: 42°   Ceiling: 100
Heat Index: 45°   Visibility: 0.31mi
Dew Point: 45°   Wind: 5mph
Humidity: 100%   Direction: 360°N
Pressure: 29.8"   Gusts: NA
Location:  53.1°N, 1.38°W
Report Text: EGNX 261720Z 36004KT 0500 R27/0900 -RADZ FG BKN001 07/07 Q1009
Loading
Personal Weather Stations






























Interactive Weather Map New forecast layout! Learn more

10-Day Weather Forecast

Advertisements
Track Severe Weather on mobile